Flugplatz Pfarrkirchen (EDNP)

Hier findest Du alle Informationen zum Flugplatz Pfarrkirchen (EDNP).

Informationen für Piloten zum Flugplatz Pfarrkirchen

Hier findest Du alle relevanten Informationen, die Du als Pilot benötigst, um Pfarrkirchen anzufliegen.

Flugplatz: Pfarrkirchen ICAO-Code: EDNP
Frequenz Turm: 119,975 Mhz GAFOR Gebiet: 74
Frequenz Ground: 119,975 Mhz Mogas: nein
Platzrunde: N 2200 ft Landegebühr: -
Platzhöhe: 1.266 ft Sunrise: 03:21 Uhr UTC
Pisten: 07/25 - 700 m x 25 m, GRAS Sunset: 19:07 Uhr UTC

Mitglieder, die in Pfarrkirchen fliegen

Flugwetter am Flugplatz Pfarrkirchen

Die METAR Information stammen aus EDDM (79.91 km entfernt).

METAR Code:
2024/07/03 17:20
EDDM 031720Z AUTO 30010KT 9999 SHRA FEW016 BKN041 FEW///TCU 13/11 Q1011 TEMPO NSW

Flugschulen am Flugplatz Pfarrkirchen

Am Flugplatz Pfarrkirchen gibt es leider keine Flugschule.

Benachbarte Flugplätze und Flugschulen

Es gibt 13 weitere Flugplätze in einem Umkreis von 50 km um den Flugplatz Pfarrkirchen.

Jetzt anmelden

Passwort vergessen

Umfrage Archiv

Wie häufig haltet Ihr die Halbkreisflugregel ein?

Eher häufig!
36.4 %
Immer!
30.2 %
Hin und wieder!
17.1 %
Nie!
9.5 %
Eher selten!
6.9 %
Stimmen: 275 | Diskussion
Anzeige: Roland Aircraft
Statistik Alle Mitglieder

Aktuell sind 28 Besucher online, davon 2 Mitglieder und 26 Gäste.


Mitglieder online:
b3nn0  CL-415 

Anzeige: EasyVFR